sensor_id;sensor_type;location;lat;lon;timestamp;pressure;altitude;pressure_sealevel;temperature;humidity
54540;BME280;40438;52.992;18.604;2022-08-11T00:01:44;101937.81;;;18.08;76.97
54540;BME280;40438;52.992;18.604;2022-08-11T00:04:11;101937.09;;;18.01;77.13
54540;BME280;40438;52.992;18.604;2022-08-11T00:06:38;101948.75;;;18.01;76.71
54540;BME280;40438;52.992;18.604;2022-08-11T00:09:09;101931.31;;;17.97;77.01
54540;BME280;40438;52.992;18.604;2022-08-11T00:11:37;101936.50;;;17.87;77.18
54540;BME280;40438;52.992;18.604;2022-08-11T00:14:14;101944.91;;;17.67;77.73
54540;BME280;40438;52.992;18.604;2022-08-11T00:16:41;101943.34;;;17.59;77.89
54540;BME280;40438;52.992;18.604;2022-08-11T00:19:08;101937.81;;;17.54;77.79
54540;BME280;40438;52.992;18.604;2022-08-11T00:21:40;101940.84;;;17.46;78.05
54540;BME280;40438;52.992;18.604;2022-08-11T00:24:07;101937.53;;;17.44;77.86
54540;BME280;40438;52.992;18.604;2022-08-11T00:26:34;101935.63;;;17.33;78.29
54540;BME280;40438;52.992;18.604;2022-08-11T00:29:07;101937.81;;;17.24;78.13
54540;BME280;40438;52.992;18.604;2022-08-11T00:31:35;101941.41;;;17.06;78.49
54540;BME280;40438;52.992;18.604;2022-08-11T00:34:02;101942.78;;;16.97;79.29
54540;BME280;40438;52.992;18.604;2022-08-11T00:36:38;101948.94;;;16.86;80.33
54540;BME280;40438;52.992;18.604;2022-08-11T00:39:06;101943.00;;;16.77;81.85
54540;BME280;40438;52.992;18.604;2022-08-11T00:41:36;101942.22;;;16.70;81.18
54540;BME280;40438;52.992;18.604;2022-08-11T00:44:11;101944.75;;;16.65;81.83
54540;BME280;40438;52.992;18.604;2022-08-11T00:46:49;101946.28;;;16.61;81.66
54540;BME280;40438;52.992;18.604;2022-08-11T00:49:34;101944.31;;;16.50;82.34
54540;BME280;40438;52.992;18.604;2022-08-11T00:52:12;101947.69;;;16.45;82.16
54540;BME280;40438;52.992;18.604;2022-08-11T01:01:04;101942.31;;;16.20;83.13
54540;BME280;40438;52.992;18.604;2022-08-11T01:03:52;101948.00;;;16.12;84.14
54540;BME280;40438;52.992;18.604;2022-08-11T01:06:40;101943.13;;;16.02;85.06
54540;BME280;40438;52.992;18.604;2022-08-11T01:09:24;101947.66;;;16.01;84.50
54540;BME280;40438;52.992;18.604;2022-08-11T01:12:20;101944.19;;;15.94;83.83
54540;BME280;40438;52.992;18.604;2022-08-11T01:15:39;101946.47;;;15.97;83.36
54540;BME280;40438;52.992;18.604;2022-08-11T01:18:36;101953.34;;;15.93;82.97
54540;BME280;40438;52.992;18.604;2022-08-11T01:25:02;101950.91;;;15.85;82.22
54540;BME280;40438;52.992;18.604;2022-08-11T01:28:06;101948.72;;;15.75;82.96
54540;BME280;40438;52.992;18.604;2022-08-11T01:34:18;101945.06;;;15.56;83.76
54540;BME280;40438;52.992;18.604;2022-08-11T01:37:18;101947.63;;;15.51;84.19
54540;BME280;40438;52.992;18.604;2022-08-11T01:40:19;101940.97;;;15.47;84.31
54540;BME280;40438;52.992;18.604;2022-08-11T01:43:18;101942.03;;;15.46;84.60
54540;BME280;40438;52.992;18.604;2022-08-11T01:45:56;101939.56;;;15.45;84.95
54540;BME280;40438;52.992;18.604;2022-08-11T01:48:36;101937.88;;;15.44;85.38
54540;BME280;40438;52.992;18.604;2022-08-11T01:51:13;101931.66;;;15.43;85.12
54540;BME280;40438;52.992;18.604;2022-08-11T01:53:52;101940.19;;;15.40;84.64
54540;BME280;40438;52.992;18.604;2022-08-11T01:56:39;101928.19;;;15.36;84.55
54540;BME280;40438;52.992;18.604;2022-08-11T01:59:14;101931.75;;;15.30;84.83
54540;BME280;40438;52.992;18.604;2022-08-11T02:01:47;101922.66;;;15.18;85.29
54540;BME280;40438;52.992;18.604;2022-08-11T02:04:22;101926.66;;;15.08;86.02
54540;BME280;40438;52.992;18.604;2022-08-11T02:06:56;101934.75;;;15.08;86.51
54540;BME280;40438;52.992;18.604;2022-08-11T02:09:42;101934.16;;;15.00;86.52
54540;BME280;40438;52.992;18.604;2022-08-11T02:12:15;101935.88;;;14.94;87.32
54540;BME280;40438;52.992;18.604;2022-08-11T02:14:53;101936.03;;;14.99;87.04
54540;BME280;40438;52.992;18.604;2022-08-11T02:17:49;101934.41;;;14.92;87.32
54540;BME280;40438;52.992;18.604;2022-08-11T02:20:22;101929.47;;;14.82;87.34
54540;BME280;40438;52.992;18.604;2022-08-11T02:22:54;101937.19;;;14.78;87.29
54540;BME280;40438;52.992;18.604;2022-08-11T02:25:29;101937.38;;;14.77;88.58
54540;BME280;40438;52.992;18.604;2022-08-11T02:28:05;101941.53;;;14.73;88.07
54540;BME280;40438;52.992;18.604;2022-08-11T02:30:36;101941.13;;;14.76;87.12
54540;BME280;40438;52.992;18.604;2022-08-11T02:33:14;101939.69;;;14.67;87.62
54540;BME280;40438;52.992;18.604;2022-08-11T02:35:45;101940.34;;;14.55;87.47
54540;BME280;40438;52.992;18.604;2022-08-11T02:38:19;101947.81;;;14.60;87.97
54540;BME280;40438;52.992;18.604;2022-08-11T02:40:55;101952.78;;;14.50;88.63
54540;BME280;40438;52.992;18.604;2022-08-11T02:43:33;101950.91;;;14.57;88.62
54540;BME280;40438;52.992;18.604;2022-08-11T02:46:17;101956.94;;;14.59;88.16
54540;BME280;40438;52.992;18.604;2022-08-11T02:48:52;101956.09;;;14.58;88.18
54540;BME280;40438;52.992;18.604;2022-08-11T02:51:26;101954.03;;;14.54;87.46
54540;BME280;40438;52.992;18.604;2022-08-11T02:54:06;101958.59;;;14.47;87.56
54540;BME280;40438;52.992;18.604;2022-08-11T02:56:43;101967.72;;;14.52;87.20
54540;BME280;40438;52.992;18.604;2022-08-11T02:59:20;101961.06;;;14.55;86.71
54540;BME280;40438;52.992;18.604;2022-08-11T03:01:52;101964.19;;;14.58;86.52
54540;BME280;40438;52.992;18.604;2022-08-11T03:04:28;101971.84;;;14.61;86.70
54540;BME280;40438;52.992;18.604;2022-08-11T03:07:03;101963.16;;;14.53;86.40
54540;BME280;40438;52.992;18.604;2022-08-11T03:09:43;101965.25;;;14.37;86.99
54540;BME280;40438;52.992;18.604;2022-08-11T03:12:17;101967.31;;;14.29;87.79
54540;BME280;40438;52.992;18.604;2022-08-11T03:14:50;101964.63;;;14.15;88.91
54540;BME280;40438;52.992;18.604;2022-08-11T03:17:27;101970.63;;;14.11;88.77
54540;BME280;40438;52.992;18.604;2022-08-11T03:20:02;101964.41;;;14.17;88.72
54540;BME280;40438;52.992;18.604;2022-08-11T03:22:34;101962.53;;;14.11;89.13
54540;BME280;40438;52.992;18.604;2022-08-11T03:25:07;101961.53;;;14.12;88.82
54540;BME280;40438;52.992;18.604;2022-08-11T03:27:45;101966.69;;;14.07;88.93
54540;BME280;40438;52.992;18.604;2022-08-11T03:30:15;101965.25;;;14.04;88.81
54540;BME280;40438;52.992;18.604;2022-08-11T03:32:52;101968.56;;;14.13;88.60
54540;BME280;40438;52.992;18.604;2022-08-11T03:35:21;101980.16;;;14.20;87.76
54540;BME280;40438;52.992;18.604;2022-08-11T03:37:50;101970.66;;;14.24;87.47
54540;BME280;40438;52.992;18.604;2022-08-11T03:40:40;101970.41;;;14.32;86.90
54540;BME280;40438;52.992;18.604;2022-08-11T03:43:18;101970.22;;;14.40;86.78
54540;BME280;40438;52.992;18.604;2022-08-11T03:46:00;101973.09;;;14.46;85.99
54540;BME280;40438;52.992;18.604;2022-08-11T03:48:39;101970.78;;;14.49;85.85
54540;BME280;40438;52.992;18.604;2022-08-11T03:51:16;101972.47;;;14.50;85.82
54540;BME280;40438;52.992;18.604;2022-08-11T03:54:13;101980.56;;;14.50;85.59
54540;BME280;40438;52.992;18.604;2022-08-11T03:57:17;101977.06;;;14.56;84.89
54540;BME280;40438;52.992;18.604;2022-08-11T04:00:03;101971.03;;;14.61;85.22
54540;BME280;40438;52.992;18.604;2022-08-11T04:12:34;101972.06;;;14.47;84.87
54540;BME280;40438;52.992;18.604;2022-08-11T04:15:20;101973.31;;;14.51;84.42
54540;BME280;40438;52.992;18.604;2022-08-11T04:18:25;101966.28;;;14.56;84.68
54540;BME280;40438;52.992;18.604;2022-08-11T04:21:20;101982.66;;;14.55;85.05
54540;BME280;40438;52.992;18.604;2022-08-11T04:27:18;101984.72;;;14.66;85.89
54540;BME280;40438;52.992;18.604;2022-08-11T04:30:02;101989.88;;;14.74;85.53
54540;BME280;40438;52.992;18.604;2022-08-11T04:32:47;101982.59;;;14.88;86.02
54540;BME280;40438;52.992;18.604;2022-08-11T04:35:29;101982.97;;;14.92;87.76
54540;BME280;40438;52.992;18.604;2022-08-11T04:41:19;101990.59;;;15.08;87.67
54540;BME280;40438;52.992;18.604;2022-08-11T04:44:27;101992.41;;;15.21;87.41
54540;BME280;40438;52.992;18.604;2022-08-11T04:47:12;101991.31;;;15.35;88.27
54540;BME280;40438;52.992;18.604;2022-08-11T04:50:03;101991.47;;;15.40;88.78
54540;BME280;40438;52.992;18.604;2022-08-11T04:52:48;101984.34;;;15.52;89.15
54540;BME280;40438;52.992;18.604;2022-08-11T04:56:01;101981.56;;;15.66;88.74
54540;BME280;40438;52.992;18.604;2022-08-11T04:59:00;101990.66;;;15.78;88.66
54540;BME280;40438;52.992;18.604;2022-08-11T05:01:41;101989.56;;;15.86;89.00
54540;BME280;40438;52.992;18.604;2022-08-11T05:04:35;101990.56;;;15.91;89.43
54540;BME280;40438;52.992;18.604;2022-08-11T05:07:26;101991.56;;;15.97;88.71
54540;BME280;40438;52.992;18.604;2022-08-11T05:10:09;101997.97;;;16.02;88.97
54540;BME280;40438;52.992;18.604;2022-08-11T05:12:43;101986.25;;;16.15;88.02
54540;BME280;40438;52.992;18.604;2022-08-11T05:15:12;101991.78;;;16.20;88.21
54540;BME280;40438;52.992;18.604;2022-08-11T05:17:41;101988.38;;;16.32;87.98
54540;BME280;40438;52.992;18.604;2022-08-11T05:20:10;101999.13;;;16.38;87.93
54540;BME280;40438;52.992;18.604;2022-08-11T05:22:41;101992.84;;;16.44;87.75
54540;BME280;40438;52.992;18.604;2022-08-11T05:25:14;101991.34;;;16.48;87.14
54540;BME280;40438;52.992;18.604;2022-08-11T05:27:50;101988.34;;;16.57;87.01
54540;BME280;40438;52.992;18.604;2022-08-11T05:30:19;101988.03;;;16.65;87.06
54540;BME280;40438;52.992;18.604;2022-08-11T05:32:56;101981.72;;;16.71;85.71
54540;BME280;40438;52.992;18.604;2022-08-11T05:35:26;101987.25;;;16.83;85.07
54540;BME280;40438;52.992;18.604;2022-08-11T05:37:54;101972.84;;;16.89;84.73
54540;BME280;40438;52.992;18.604;2022-08-11T05:40:21;101988.91;;;17.02;83.69
54540;BME280;40438;52.992;18.604;2022-08-11T05:42:48;101985.66;;;17.12;83.29
54540;BME280;40438;52.992;18.604;2022-08-11T05:45:16;101993.34;;;17.15;82.96
54540;BME280;40438;52.992;18.604;2022-08-11T05:47:47;101990.31;;;17.23;82.49
54540;BME280;40438;52.992;18.604;2022-08-11T05:50:16;101986.47;;;17.31;82.04
54540;BME280;40438;52.992;18.604;2022-08-11T05:52:45;101993.47;;;17.38;82.19
54540;BME280;40438;52.992;18.604;2022-08-11T05:55:13;101994.34;;;17.51;81.49
54540;BME280;40438;52.992;18.604;2022-08-11T05:57:40;101996.09;;;17.57;81.30
54540;BME280;40438;52.992;18.604;2022-08-11T06:00:07;101992.72;;;17.61;80.87
54540;BME280;40438;52.992;18.604;2022-08-11T06:02:39;101993.22;;;17.70;80.53
54540;BME280;40438;52.992;18.604;2022-08-11T06:05:06;101993.34;;;17.75;80.21
54540;BME280;40438;52.992;18.604;2022-08-11T06:07:32;101995.75;;;17.83;80.00
54540;BME280;40438;52.992;18.604;2022-08-11T06:09:59;101996.03;;;17.94;78.73
54540;BME280;40438;52.992;18.604;2022-08-11T06:12:28;101995.56;;;17.97;78.64
54540;BME280;40438;52.992;18.604;2022-08-11T06:14:55;101995.69;;;18.02;79.01
54540;BME280;40438;52.992;18.604;2022-08-11T06:17:23;101983.66;;;18.09;78.15
54540;BME280;40438;52.992;18.604;2022-08-11T06:19:50;101990.03;;;18.15;76.90
54540;BME280;40438;52.992;18.604;2022-08-11T06:22:19;101993.47;;;18.22;76.38
54540;BME280;40438;52.992;18.604;2022-08-11T06:24:50;101995.25;;;18.28;77.07
54540;BME280;40438;52.992;18.604;2022-08-11T06:27:19;101985.09;;;18.36;76.22
54540;BME280;40438;52.992;18.604;2022-08-11T06:29:49;101985.22;;;18.41;75.13
54540;BME280;40438;52.992;18.604;2022-08-11T06:32:15;101990.88;;;18.51;74.08
54540;BME280;40438;52.992;18.604;2022-08-11T06:35:00;101990.53;;;18.59;73.81
54540;BME280;40438;52.992;18.604;2022-08-11T06:37:38;101983.09;;;18.66;73.01
54540;BME280;40438;52.992;18.604;2022-08-11T06:40:07;101989.56;;;18.77;72.49
54540;BME280;40438;52.992;18.604;2022-08-11T06:42:46;101979.44;;;18.84;72.11
54540;BME280;40438;52.992;18.604;2022-08-11T06:45:23;101983.41;;;18.93;71.65
54540;BME280;40438;52.992;18.604;2022-08-11T06:47:51;101989.88;;;19.04;71.33
54540;BME280;40438;52.992;18.604;2022-08-11T06:50:18;101982.41;;;19.11;70.19
54540;BME280;40438;52.992;18.604;2022-08-11T06:52:45;101979.34;;;19.19;69.97
54540;BME280;40438;52.992;18.604;2022-08-11T06:55:13;101971.84;;;19.27;69.88
54540;BME280;40438;52.992;18.604;2022-08-11T06:57:43;101970.63;;;19.34;69.05
54540;BME280;40438;52.992;18.604;2022-08-11T07:00:12;101973.19;;;19.41;68.53
54540;BME280;40438;52.992;18.604;2022-08-11T07:02:45;101967.38;;;19.49;67.58
54540;BME280;40438;52.992;18.604;2022-08-11T07:05:19;101967.50;;;19.54;67.93
54540;BME280;40438;52.992;18.604;2022-08-11T07:08:16;101967.06;;;19.62;67.62
54540;BME280;40438;52.992;18.604;2022-08-11T07:10:59;101959.13;;;19.73;67.70
54540;BME280;40438;52.992;18.604;2022-08-11T07:13:35;101962.03;;;19.83;67.51
54540;BME280;40438;52.992;18.604;2022-08-11T07:16:03;101965.75;;;19.93;66.68
54540;BME280;40438;52.992;18.604;2022-08-11T07:18:32;101961.53;;;20.03;65.98
54540;BME280;40438;52.992;18.604;2022-08-11T07:21:09;101958.97;;;20.13;65.59
54540;BME280;40438;52.992;18.604;2022-08-11T07:23:35;101958.06;;;20.24;66.87
54540;BME280;40438;52.992;18.604;2022-08-11T07:26:02;101951.94;;;20.34;67.97
54540;BME280;40438;52.992;18.604;2022-08-11T07:28:29;101949.38;;;20.44;66.01
54540;BME280;40438;52.992;18.604;2022-08-11T07:31:00;101950.03;;;20.51;65.42
54540;BME280;40438;52.992;18.604;2022-08-11T07:33:37;101950.69;;;20.58;65.89
54540;BME280;40438;52.992;18.604;2022-08-11T07:36:06;101946.19;;;20.69;65.72
54540;BME280;40438;52.992;18.604;2022-08-11T07:38:40;101949.63;;;20.81;64.01
54540;BME280;40438;52.992;18.604;2022-08-11T07:41:07;101943.72;;;20.90;61.25
54540;BME280;40438;52.992;18.604;2022-08-11T07:43:33;101944.38;;;20.97;61.28
54540;BME280;40438;52.992;18.604;2022-08-11T07:46:02;101950.75;;;21.07;62.96
54540;BME280;40438;52.992;18.604;2022-08-11T07:48:29;101953.28;;;21.14;62.52
54540;BME280;40438;52.992;18.604;2022-08-11T07:50:58;101947.94;;;21.24;61.96
54540;BME280;40438;52.992;18.604;2022-08-11T07:53:24;101939.03;;;21.34;60.06
54540;BME280;40438;52.992;18.604;2022-08-11T07:55:52;101953.06;;;21.43;61.27
54540;BME280;40438;52.992;18.604;2022-08-11T07:58:19;101946.88;;;21.52;58.56
54540;BME280;40438;52.992;18.604;2022-08-11T08:00:49;101948.06;;;21.62;59.43
54540;BME280;40438;52.992;18.604;2022-08-11T08:03:15;101941.31;;;21.69;56.96
54540;BME280;40438;52.992;18.604;2022-08-11T08:05:41;101939.75;;;21.78;57.23
54540;BME280;40438;52.992;18.604;2022-08-11T08:08:09;101935.44;;;21.88;57.25
54540;BME280;40438;52.992;18.604;2022-08-11T08:10:36;101931.97;;;21.97;57.24
54540;BME280;40438;52.992;18.604;2022-08-11T08:13:04;101936.38;;;22.03;57.25
54540;BME280;40438;52.992;18.604;2022-08-11T08:15:30;101934.56;;;22.14;56.88
54540;BME280;40438;52.992;18.604;2022-08-11T08:17:57;101934.91;;;22.23;57.36
54540;BME280;40438;52.992;18.604;2022-08-11T08:20:26;101927.34;;;22.30;56.74
54540;BME280;40438;52.992;18.604;2022-08-11T08:22:53;101926.00;;;22.38;55.52
54540;BME280;40438;52.992;18.604;2022-08-11T08:25:22;101928.25;;;22.51;56.07
54540;BME280;40438;52.992;18.604;2022-08-11T08:27:48;101928.84;;;22.58;56.72
54540;BME280;40438;52.992;18.604;2022-08-11T08:30:15;101929.13;;;22.67;56.05
54540;BME280;40438;52.992;18.604;2022-08-11T08:32:42;101931.09;;;22.77;56.47
54540;BME280;40438;52.992;18.604;2022-08-11T08:35:09;101917.75;;;22.85;54.08
54540;BME280;40438;52.992;18.604;2022-08-11T08:37:36;101914.53;;;22.93;53.04
54540;BME280;40438;52.992;18.604;2022-08-11T08:40:06;101902.00;;;23.03;50.63
54540;BME280;40438;52.992;18.604;2022-08-11T08:42:38;101906.34;;;23.09;50.35
54540;BME280;40438;52.992;18.604;2022-08-11T08:45:08;101908.56;;;23.17;51.64
54540;BME280;40438;52.992;18.604;2022-08-11T08:47:35;101904.75;;;23.23;51.40
54540;BME280;40438;52.992;18.604;2022-08-11T08:50:04;101908.59;;;23.32;51.64
54540;BME280;40438;52.992;18.604;2022-08-11T08:52:34;101900.69;;;23.41;49.77
54540;BME280;40438;52.992;18.604;2022-08-11T08:55:04;101905.06;;;23.52;49.83
54540;BME280;40438;52.992;18.604;2022-08-11T08:57:33;101898.22;;;23.60;50.29
54540;BME280;40438;52.992;18.604;2022-08-11T09:00:01;101901.25;;;23.69;50.56
54540;BME280;40438;52.992;18.604;2022-08-11T09:02:27;101891.41;;;23.78;48.28
54540;BME280;40438;52.992;18.604;2022-08-11T09:04:54;101894.97;;;23.89;49.05
54540;BME280;40438;52.992;18.604;2022-08-11T09:07:22;101884.81;;;23.99;48.33
54540;BME280;40438;52.992;18.604;2022-08-11T09:09:50;101889.44;;;24.14;48.81
54540;BME280;40438;52.992;18.604;2022-08-11T09:12:17;101877.09;;;24.27;47.43
54540;BME280;40438;52.992;18.604;2022-08-11T09:14:48;101881.41;;;24.38;49.09
54540;BME280;40438;52.992;18.604;2022-08-11T09:17:16;101881.69;;;24.42;47.44
54540;BME280;40438;52.992;18.604;2022-08-11T09:19:42;101872.94;;;24.40;46.23
54540;BME280;40438;52.992;18.604;2022-08-11T09:22:08;101865.53;;;24.35;45.48
54540;BME280;40438;52.992;18.604;2022-08-11T09:24:36;101866.34;;;24.41;45.13
54540;BME280;40438;52.992;18.604;2022-08-11T09:27:05;101872.66;;;24.41;46.50
54540;BME280;40438;52.992;18.604;2022-08-11T09:29:31;101875.41;;;24.46;45.43
54540;BME280;40438;52.992;18.604;2022-08-11T09:32:00;101874.03;;;24.49;45.29
54540;BME280;40438;52.992;18.604;2022-08-11T09:34:26;101878.94;;;24.47;45.14
54540;BME280;40438;52.992;18.604;2022-08-11T09:36:53;101872.66;;;24.46;45.76
54540;BME280;40438;52.992;18.604;2022-08-11T09:39:19;101869.31;;;24.54;45.46
54540;BME280;40438;52.992;18.604;2022-08-11T09:41:46;101859.66;;;24.67;44.12
54540;BME280;40438;52.992;18.604;2022-08-11T09:44:12;101856.28;;;24.86;43.95
54540;BME280;40438;52.992;18.604;2022-08-11T09:46:38;101856.25;;;24.91;42.75
54540;BME280;40438;52.992;18.604;2022-08-11T09:49:05;101849.66;;;24.97;42.86
54540;BME280;40438;52.992;18.604;2022-08-11T09:51:32;101852.56;;;25.11;43.49
54540;BME280;40438;52.992;18.604;2022-08-11T09:53:59;101855.47;;;25.30;42.46
54540;BME280;40438;52.992;18.604;2022-08-11T09:56:28;101842.16;;;25.47;41.49
54540;BME280;40438;52.992;18.604;2022-08-11T09:58:54;101832.97;;;25.62;40.45
54540;BME280;40438;52.992;18.604;2022-08-11T10:01:21;101835.53;;;25.82;41.08
54540;BME280;40438;52.992;18.604;2022-08-11T10:03:50;101836.13;;;26.03;40.82
54540;BME280;40438;52.992;18.604;2022-08-11T10:06:17;101824.34;;;26.27;40.50
54540;BME280;40438;52.992;18.604;2022-08-11T10:08:45;101815.25;;;26.50;38.97
54540;BME280;40438;52.992;18.604;2022-08-11T10:11:14;101800.50;;;26.65;37.47
54540;BME280;40438;52.992;18.604;2022-08-11T10:13:43;101808.78;;;26.79;37.68
54540;BME280;40438;52.992;18.604;2022-08-11T10:16:09;101800.84;;;26.96;36.86
54540;BME280;40438;52.992;18.604;2022-08-11T10:18:40;101800.56;;;27.12;36.97
54540;BME280;40438;52.992;18.604;2022-08-11T10:21:09;101788.94;;;27.20;35.35
54540;BME280;40438;52.992;18.604;2022-08-11T10:23:37;101788.75;;;27.30;35.38
54540;BME280;40438;52.992;18.604;2022-08-11T10:26:06;101784.59;;;27.46;35.95
54540;BME280;40438;52.992;18.604;2022-08-11T10:28:34;101776.19;;;27.57;34.95
54540;BME280;40438;52.992;18.604;2022-08-11T10:31:00;101777.59;;;27.68;35.30
54540;BME280;40438;52.992;18.604;2022-08-11T10:33:28;101780.09;;;27.83;35.60
54540;BME280;40438;52.992;18.604;2022-08-11T10:35:54;101775.28;;;28.03;34.71
54540;BME280;40438;52.992;18.604;2022-08-11T10:38:20;101773.84;;;28.19;33.63
54540;BME280;40438;52.992;18.604;2022-08-11T10:40:47;101761.28;;;28.13;32.45
54540;BME280;40438;52.992;18.604;2022-08-11T10:43:13;101762.94;;;28.14;32.23
54540;BME280;40438;52.992;18.604;2022-08-11T10:45:42;101757.81;;;28.21;32.58
54540;BME280;40438;52.992;18.604;2022-08-11T10:48:08;101752.94;;;28.18;31.83
54540;BME280;40438;52.992;18.604;2022-08-11T10:50:36;101756.88;;;28.26;32.31
54540;BME280;40438;52.992;18.604;2022-08-11T10:53:03;101751.28;;;28.31;32.55
54540;BME280;40438;52.992;18.604;2022-08-11T10:55:29;101764.84;;;28.41;32.45
54540;BME280;40438;52.992;18.604;2022-08-11T10:57:57;101752.56;;;28.61;32.80
54540;BME280;40438;52.992;18.604;2022-08-11T11:00:23;101752.56;;;28.83;33.46
54540;BME280;40438;52.992;18.604;2022-08-11T11:02:49;101754.53;;;29.05;32.17
54540;BME280;40438;52.992;18.604;2022-08-11T11:05:21;101738.41;;;29.30;31.05
54540;BME280;40438;52.992;18.604;2022-08-11T11:07:54;101735.38;;;29.40;30.90
54540;BME280;40438;52.992;18.604;2022-08-11T11:10:20;101732.91;;;29.61;30.75
54540;BME280;40438;52.992;18.604;2022-08-11T11:12:50;101724.66;;;29.70;28.73
54540;BME280;40438;52.992;18.604;2022-08-11T11:15:20;101706.84;;;29.84;28.94
54540;BME280;40438;52.992;18.604;2022-08-11T11:17:50;101718.06;;;30.05;30.08
54540;BME280;40438;52.992;18.604;2022-08-11T11:20:22;101710.16;;;30.21;29.60
54540;BME280;40438;52.992;18.604;2022-08-11T11:22:50;101707.41;;;30.39;29.31
54540;BME280;40438;52.992;18.604;2022-08-11T11:25:22;101703.97;;;30.59;28.94
54540;BME280;40438;52.992;18.604;2022-08-11T11:27:53;101696.78;;;30.75;28.67
54540;BME280;40438;52.992;18.604;2022-08-11T11:30:28;101707.72;;;30.55;29.35
54540;BME280;40438;52.992;18.604;2022-08-11T11:33:03;101708.19;;;30.13;29.65
54540;BME280;40438;52.992;18.604;2022-08-11T11:35:40;101710.00;;;29.60;30.26
54540;BME280;40438;52.992;18.604;2022-08-11T11:38:09;101719.03;;;29.12;30.43
54540;BME280;40438;52.992;18.604;2022-08-11T11:40:36;101714.94;;;28.87;30.98
54540;BME280;40438;52.992;18.604;2022-08-11T11:43:04;101705.50;;;29.02;30.36
54540;BME280;40438;52.992;18.604;2022-08-11T11:45:31;101692.94;;;29.27;30.14
54540;BME280;40438;52.992;18.604;2022-08-11T11:47:58;101680.25;;;29.57;29.02
54540;BME280;40438;52.992;18.604;2022-08-11T11:50:26;101685.75;;;29.97;29.52
54540;BME280;40438;52.992;18.604;2022-08-11T11:52:52;101673.44;;;30.29;29.57
54540;BME280;40438;52.992;18.604;2022-08-11T11:55:20;101669.66;;;30.60;28.50
54540;BME280;40438;52.992;18.604;2022-08-11T11:57:47;101667.84;;;30.82;28.92
54540;BME280;40438;52.992;18.604;2022-08-11T12:00:13;101667.44;;;31.09;27.32
54540;BME280;40438;52.992;18.604;2022-08-11T12:02:41;101676.63;;;30.66;27.88
54540;BME280;40438;52.992;18.604;2022-08-11T12:05:08;101683.69;;;30.29;28.34
54540;BME280;40438;52.992;18.604;2022-08-11T12:07:35;101673.69;;;29.84;29.41
54540;BME280;40438;52.992;18.604;2022-08-11T12:10:02;101690.41;;;29.39;30.02
54540;BME280;40438;52.992;18.604;2022-08-11T12:12:30;101695.28;;;28.80;30.36
54540;BME280;40438;52.992;18.604;2022-08-11T12:14:56;101689.47;;;28.59;31.25
54540;BME280;40438;52.992;18.604;2022-08-11T12:17:22;101685.13;;;28.89;31.34
54540;BME280;40438;52.992;18.604;2022-08-11T12:19:51;101671.22;;;29.26;31.03
54540;BME280;40438;52.992;18.604;2022-08-11T12:22:17;101656.44;;;29.70;29.45
54540;BME280;40438;52.992;18.604;2022-08-11T12:24:44;101656.66;;;30.17;30.09
54540;BME280;40438;52.992;18.604;2022-08-11T12:27:11;101642.50;;;30.53;28.29
54540;BME280;40438;52.992;18.604;2022-08-11T12:29:37;101631.91;;;30.82;28.28
54540;BME280;40438;52.992;18.604;2022-08-11T12:32:06;101620.88;;;31.11;27.80
54540;BME280;40438;52.992;18.604;2022-08-11T12:34:32;101633.81;;;31.37;27.66
54540;BME280;40438;52.992;18.604;2022-08-11T12:37:02;101621.03;;;31.53;26.76
54540;BME280;40438;52.992;18.604;2022-08-11T12:39:38;101627.41;;;31.07;26.78
54540;BME280;40438;52.992;18.604;2022-08-11T12:42:08;101627.53;;;30.63;27.50
54540;BME280;40438;52.992;18.604;2022-08-11T12:44:35;101626.28;;;30.17;28.19
54540;BME280;40438;52.992;18.604;2022-08-11T12:47:02;101630.97;;;29.73;28.87
54540;BME280;40438;52.992;18.604;2022-08-11T12:49:30;101619.59;;;29.26;28.59
54540;BME280;40438;52.992;18.604;2022-08-11T12:52:04;101617.00;;;28.90;29.07
54540;BME280;40438;52.992;18.604;2022-08-11T12:54:33;101611.94;;;28.52;28.91
54540;BME280;40438;52.992;18.604;2022-08-11T12:57:02;101611.91;;;28.30;29.67
54540;BME280;40438;52.992;18.604;2022-08-11T12:59:30;101612.03;;;28.69;30.04
54540;BME280;40438;52.992;18.604;2022-08-11T13:01:56;101603.19;;;29.12;29.95
54540;BME280;40438;52.992;18.604;2022-08-11T13:04:22;101596.28;;;29.41;29.77
54540;BME280;40438;52.992;18.604;2022-08-11T13:06:49;101605.13;;;29.78;29.51
54540;BME280;40438;52.992;18.604;2022-08-11T13:09:17;101605.13;;;30.13;28.51
54540;BME280;40438;52.992;18.604;2022-08-11T13:11:45;101588.19;;;30.58;27.31
54540;BME280;40438;52.992;18.604;2022-08-11T13:14:11;101583.03;;;30.94;26.77
54540;BME280;40438;52.992;18.604;2022-08-11T13:16:38;101567.41;;;31.37;25.83
54540;BME280;40438;52.992;18.604;2022-08-11T13:19:04;101566.53;;;31.66;24.58
54540;BME280;40438;52.992;18.604;2022-08-11T13:21:30;101567.75;;;31.98;25.85
54540;BME280;40438;52.992;18.604;2022-08-11T13:23:56;101566.81;;;32.27;26.59
54540;BME280;40438;52.992;18.604;2022-08-11T13:26:24;101555.94;;;32.55;25.32
54540;BME280;40438;52.992;18.604;2022-08-11T13:28:50;101553.50;;;32.54;24.94
54540;BME280;40438;52.992;18.604;2022-08-11T13:31:16;101554.28;;;32.42;24.75
54540;BME280;40438;52.992;18.604;2022-08-11T13:33:45;101564.72;;;31.91;25.81
54540;BME280;40438;52.992;18.604;2022-08-11T13:36:13;101565.91;;;31.39;26.08
54540;BME280;40438;52.992;18.604;2022-08-11T13:38:42;101564.53;;;30.86;26.85